Thousand Palms, CA

4:19 AM PST on January 25, 2015 (GMT -0800)
Twentynine Palms Expeditionary Air Field | Change Station
CLOSE
Current Station
Airport
Location: Twentynine Palms,
Elevation: 2054 ft
Nearby Weather Stations

Elev 2054 ft 34.30 °N, 116.16 °W | Updated 23 minutes ago

Clear
Clear
50 °F
Feels Like 50 °F
N
7
Wind Variable Wind from NW

Today
High -- | Low -- °F
--% Chance of Precip.
Yesterday
High -- | Low -- °F
Precip. -- in
6:46 AM 5:09 PM
Waxing Crescent, 31% visible
Pressure 30.17 in
Visibility 10.0 miles
Clouds Clear
Dew Point 18 °F
Humidity 28%
Rainfall 0.00 in
Snow Depth Not available.
UV 0 out of 12
Pollen 7.30 out of 12
Air Quality Not available.
Flu Activity Not available.
METAR KNXP 251156Z AUTO 32006KT 10SM CLR 10/M08 A3023 RMK AO2 SLP215 T01001078 10122 20083 58008 $

More Conditions Fewer Conditions

Pressure 30.17 in
Visibility 10.0 miles
Clouds Clear
Dew Point 18 °F
Humidity 28%
Rainfall 0.00 in
Snow Depth Not available.
UV 0 out of 12
Pollen 7.30 out of 12
Air Quality Not available.
Flu Activity Not available.
METAR KNXP 251156Z AUTO 32006KT 10SM CLR 10/M08 A3023 RMK AO2 SLP215 T01001078 10122 20083 58008 $

More Conditions Fewer Conditions

10-Day Weather Forecast

Almanac

Astronomy

Jan. 25, 2015 Rise Set
Actual Time
Civil Twilight
Nautical Twilight
Astronomical Twilight
Moon
Length of Visible Light
Length of Day
Tomorrow will be .
, % of the Moon is Illuminated

Today's Extremes

State Highs State Lows

Community

WunderPhotos

Upload Photos

1,789,873 photos uploaded!

WunderBlogs® & News

Nearby

Air Quality

  Air Quality AQ Index Pollutant
Not available.

Snow Depth

Station Depth Elevation

Earthquake Activity

City Distance Mag. Time & Date
Minimum magnitude displayed is 2.5.

Coastal Water Temperatures

Place Temperature

Nearby Weather Stations